sensor_id;sensor_type;location;lat;lon;timestamp;P1;durP1;ratioP1;P2;durP2;ratioP2
27706;SDS011;36332;51.384;0.040;2022-10-16T00:01:35;32.95;;;3.70;;
27706;SDS011;36332;51.384;0.040;2022-10-16T00:04:03;34.10;;;4.22;;
27706;SDS011;36332;51.384;0.040;2022-10-16T00:06:31;41.90;;;4.97;;
27706;SDS011;36332;51.384;0.040;2022-10-16T00:08:59;36.75;;;4.35;;
27706;SDS011;36332;51.384;0.040;2022-10-16T00:11:32;30.50;;;4.28;;
27706;SDS011;36332;51.384;0.040;2022-10-16T00:14:04;23.23;;;3.92;;
27706;SDS011;36332;51.384;0.040;2022-10-16T00:16:33;32.70;;;3.97;;
27706;SDS011;36332;51.384;0.040;2022-10-16T00:19:02;29.63;;;4.57;;
27706;SDS011;36332;51.384;0.040;2022-10-16T00:21:30;26.70;;;5.03;;
27706;SDS011;36332;51.384;0.040;2022-10-16T00:24:17;21.77;;;3.05;;
27706;SDS011;36332;51.384;0.040;2022-10-16T00:26:45;21.80;;;3.20;;
27706;SDS011;36332;51.384;0.040;2022-10-16T00:29:12;18.80;;;3.42;;
27706;SDS011;36332;51.384;0.040;2022-10-16T00:31:40;22.50;;;3.78;;
27706;SDS011;36332;51.384;0.040;2022-10-16T00:34:08;19.58;;;3.67;;
27706;SDS011;36332;51.384;0.040;2022-10-16T00:36:35;14.98;;;2.90;;
27706;SDS011;36332;51.384;0.040;2022-10-16T00:39:03;19.42;;;4.07;;
27706;SDS011;36332;51.384;0.040;2022-10-16T00:41:31;15.50;;;2.92;;
27706;SDS011;36332;51.384;0.040;2022-10-16T00:44:00;20.27;;;3.15;;
27706;SDS011;36332;51.384;0.040;2022-10-16T00:46:38;15.00;;;2.78;;
27706;SDS011;36332;51.384;0.040;2022-10-16T00:49:15;24.65;;;3.45;;
27706;SDS011;36332;51.384;0.040;2022-10-16T00:51:46;22.88;;;3.10;;
27706;SDS011;36332;51.384;0.040;2022-10-16T00:54:17;28.05;;;4.57;;
27706;SDS011;36332;51.384;0.040;2022-10-16T00:56:49;20.45;;;3.17;;
27706;SDS011;36332;51.384;0.040;2022-10-16T00:59:28;25.77;;;3.63;;
27706;SDS011;36332;51.384;0.040;2022-10-16T01:01:59;20.85;;;3.90;;
27706;SDS011;36332;51.384;0.040;2022-10-16T01:04:31;15.85;;;2.38;;
27706;SDS011;36332;51.384;0.040;2022-10-16T01:07:23;21.17;;;3.28;;
27706;SDS011;36332;51.384;0.040;2022-10-16T01:15:23;26.15;;;2.53;;
27706;SDS011;36332;51.384;0.040;2022-10-16T01:18:11;29.30;;;3.00;;
27706;SDS011;36332;51.384;0.040;2022-10-16T01:20:51;26.73;;;3.63;;
27706;SDS011;36332;51.384;0.040;2022-10-16T01:23:36;24.65;;;3.30;;
27706;SDS011;36332;51.384;0.040;2022-10-16T01:26:47;28.70;;;3.53;;
27706;SDS011;36332;51.384;0.040;2022-10-16T01:31:59;28.05;;;3.53;;
27706;SDS011;36332;51.384;0.040;2022-10-16T01:34:32;26.45;;;3.28;;
27706;SDS011;36332;51.384;0.040;2022-10-16T01:38:23;20.88;;;3.55;;
27706;SDS011;36332;51.384;0.040;2022-10-16T01:40:44;26.77;;;3.65;;
27706;SDS011;36332;51.384;0.040;2022-10-16T01:43:25;29.02;;;4.18;;
27706;SDS011;36332;51.384;0.040;2022-10-16T01:46:00;30.17;;;4.68;;
27706;SDS011;36332;51.384;0.040;2022-10-16T01:48:28;34.63;;;4.78;;
27706;SDS011;36332;51.384;0.040;2022-10-16T01:50:59;28.58;;;5.38;;
27706;SDS011;36332;51.384;0.040;2022-10-16T01:53:32;34.58;;;4.22;;
27706;SDS011;36332;51.384;0.040;2022-10-16T01:56:01;33.05;;;5.10;;
27706;SDS011;36332;51.384;0.040;2022-10-16T01:58:33;48.00;;;6.30;;
27706;SDS011;36332;51.384;0.040;2022-10-16T02:01:04;34.70;;;4.53;;
27706;SDS011;36332;51.384;0.040;2022-10-16T02:03:36;45.35;;;5.40;;
27706;SDS011;36332;51.384;0.040;2022-10-16T02:06:07;30.73;;;4.40;;
27706;SDS011;36332;51.384;0.040;2022-10-16T02:08:36;29.42;;;3.63;;
27706;SDS011;36332;51.384;0.040;2022-10-16T02:11:05;25.17;;;4.10;;
27706;SDS011;36332;51.384;0.040;2022-10-16T02:13:35;21.17;;;3.88;;
27706;SDS011;36332;51.384;0.040;2022-10-16T02:16:17;25.88;;;3.88;;
27706;SDS011;36332;51.384;0.040;2022-10-16T02:18:45;27.92;;;3.42;;
27706;SDS011;36332;51.384;0.040;2022-10-16T02:21:23;23.27;;;3.92;;
27706;SDS011;36332;51.384;0.040;2022-10-16T02:26:30;29.83;;;4.18;;
27706;SDS011;36332;51.384;0.040;2022-10-16T02:29:08;26.08;;;3.45;;
27706;SDS011;36332;51.384;0.040;2022-10-16T02:31:41;24.77;;;3.30;;
27706;SDS011;36332;51.384;0.040;2022-10-16T02:34:20;13.48;;;2.28;;
27706;SDS011;36332;51.384;0.040;2022-10-16T02:36:49;26.63;;;4.28;;
27706;SDS011;36332;51.384;0.040;2022-10-16T02:39:18;18.17;;;3.85;;
27706;SDS011;36332;51.384;0.040;2022-10-16T02:41:47;12.93;;;3.33;;
27706;SDS011;36332;51.384;0.040;2022-10-16T02:44:14;26.77;;;3.50;;
27706;SDS011;36332;51.384;0.040;2022-10-16T02:46:42;20.83;;;3.70;;
27706;SDS011;36332;51.384;0.040;2022-10-16T02:49:10;13.85;;;3.25;;
27706;SDS011;36332;51.384;0.040;2022-10-16T02:51:38;17.63;;;3.83;;
27706;SDS011;36332;51.384;0.040;2022-10-16T02:54:05;21.80;;;3.60;;
27706;SDS011;36332;51.384;0.040;2022-10-16T02:56:33;25.60;;;3.03;;
27706;SDS011;36332;51.384;0.040;2022-10-16T02:59:01;25.00;;;3.97;;
27706;SDS011;36332;51.384;0.040;2022-10-16T03:01:29;18.48;;;2.45;;
27706;SDS011;36332;51.384;0.040;2022-10-16T03:03:57;20.45;;;3.90;;
27706;SDS011;36332;51.384;0.040;2022-10-16T03:06:25;20.67;;;2.80;;
27706;SDS011;36332;51.384;0.040;2022-10-16T03:08:52;21.17;;;3.15;;
27706;SDS011;36332;51.384;0.040;2022-10-16T03:11:20;29.45;;;3.55;;
27706;SDS011;36332;51.384;0.040;2022-10-16T03:13:47;26.25;;;3.40;;
27706;SDS011;36332;51.384;0.040;2022-10-16T03:16:15;18.50;;;4.22;;
27706;SDS011;36332;51.384;0.040;2022-10-16T03:18:43;18.08;;;2.85;;
27706;SDS011;36332;51.384;0.040;2022-10-16T03:21:15;26.15;;;3.10;;
27706;SDS011;36332;51.384;0.040;2022-10-16T03:23:43;20.67;;;3.20;;
27706;SDS011;36332;51.384;0.040;2022-10-16T03:26:11;21.30;;;3.15;;
27706;SDS011;36332;51.384;0.040;2022-10-16T03:28:39;33.28;;;3.88;;
27706;SDS011;36332;51.384;0.040;2022-10-16T03:31:06;28.73;;;3.97;;
27706;SDS011;36332;51.384;0.040;2022-10-16T03:33:35;21.23;;;3.65;;
27706;SDS011;36332;51.384;0.040;2022-10-16T03:36:02;17.83;;;2.40;;
27706;SDS011;36332;51.384;0.040;2022-10-16T03:38:30;20.83;;;3.00;;
27706;SDS011;36332;51.384;0.040;2022-10-16T03:40:58;15.38;;;3.60;;
27706;SDS011;36332;51.384;0.040;2022-10-16T03:43:25;18.83;;;2.95;;
27706;SDS011;36332;51.384;0.040;2022-10-16T03:45:53;24.48;;;2.65;;
27706;SDS011;36332;51.384;0.040;2022-10-16T03:48:20;22.92;;;2.72;;
27706;SDS011;36332;51.384;0.040;2022-10-16T03:50:48;20.90;;;3.03;;
27706;SDS011;36332;51.384;0.040;2022-10-16T03:53:17;18.88;;;3.17;;
27706;SDS011;36332;51.384;0.040;2022-10-16T03:55:45;16.05;;;2.58;;
27706;SDS011;36332;51.384;0.040;2022-10-16T03:58:12;23.35;;;2.72;;
27706;SDS011;36332;51.384;0.040;2022-10-16T04:00:44;10.27;;;2.45;;
27706;SDS011;36332;51.384;0.040;2022-10-16T04:03:13;22.27;;;4.25;;
27706;SDS011;36332;51.384;0.040;2022-10-16T04:05:40;20.48;;;2.85;;
27706;SDS011;36332;51.384;0.040;2022-10-16T04:08:08;23.23;;;2.95;;
27706;SDS011;36332;51.384;0.040;2022-10-16T04:10:36;20.88;;;3.15;;
27706;SDS011;36332;51.384;0.040;2022-10-16T04:13:04;17.33;;;3.08;;
27706;SDS011;36332;51.384;0.040;2022-10-16T04:15:31;16.60;;;3.25;;
27706;SDS011;36332;51.384;0.040;2022-10-16T04:17:59;22.83;;;3.60;;
27706;SDS011;36332;51.384;0.040;2022-10-16T04:20:27;25.48;;;4.25;;
27706;SDS011;36332;51.384;0.040;2022-10-16T04:22:55;17.65;;;3.53;;
27706;SDS011;36332;51.384;0.040;2022-10-16T04:25:23;17.58;;;2.80;;
27706;SDS011;36332;51.384;0.040;2022-10-16T04:27:52;21.05;;;2.60;;
27706;SDS011;36332;51.384;0.040;2022-10-16T04:30:21;19.60;;;3.22;;
27706;SDS011;36332;51.384;0.040;2022-10-16T04:32:49;23.88;;;4.68;;
27706;SDS011;36332;51.384;0.040;2022-10-16T04:35:18;23.52;;;3.22;;
27706;SDS011;36332;51.384;0.040;2022-10-16T04:37:46;16.25;;;2.80;;
27706;SDS011;36332;51.384;0.040;2022-10-16T04:40:14;19.45;;;3.50;;
27706;SDS011;36332;51.384;0.040;2022-10-16T04:42:41;25.88;;;2.50;;
27706;SDS011;36332;51.384;0.040;2022-10-16T04:45:09;26.92;;;3.25;;
27706;SDS011;36332;51.384;0.040;2022-10-16T04:47:42;30.08;;;3.00;;
27706;SDS011;36332;51.384;0.040;2022-10-16T04:50:10;23.25;;;3.42;;
27706;SDS011;36332;51.384;0.040;2022-10-16T04:52:38;25.13;;;3.03;;
27706;SDS011;36332;51.384;0.040;2022-10-16T04:55:06;27.95;;;3.42;;
27706;SDS011;36332;51.384;0.040;2022-10-16T04:57:34;22.25;;;4.57;;
27706;SDS011;36332;51.384;0.040;2022-10-16T05:00:02;13.70;;;2.63;;
27706;SDS011;36332;51.384;0.040;2022-10-16T05:02:30;33.67;;;3.88;;
27706;SDS011;36332;51.384;0.040;2022-10-16T05:04:58;20.48;;;3.78;;
27706;SDS011;36332;51.384;0.040;2022-10-16T05:07:26;27.38;;;3.88;;
27706;SDS011;36332;51.384;0.040;2022-10-16T05:09:54;21.58;;;2.88;;
27706;SDS011;36332;51.384;0.040;2022-10-16T05:12:22;18.60;;;3.05;;
27706;SDS011;36332;51.384;0.040;2022-10-16T05:14:49;18.88;;;4.68;;
27706;SDS011;36332;51.384;0.040;2022-10-16T05:17:17;21.88;;;3.65;;
27706;SDS011;36332;51.384;0.040;2022-10-16T05:19:45;31.33;;;3.28;;
27706;SDS011;36332;51.384;0.040;2022-10-16T05:22:12;18.92;;;2.95;;
27706;SDS011;36332;51.384;0.040;2022-10-16T05:24:40;20.83;;;2.63;;
27706;SDS011;36332;51.384;0.040;2022-10-16T05:27:08;27.10;;;4.97;;
27706;SDS011;36332;51.384;0.040;2022-10-16T05:29:36;20.20;;;3.17;;
27706;SDS011;36332;51.384;0.040;2022-10-16T05:32:03;32.90;;;3.65;;
27706;SDS011;36332;51.384;0.040;2022-10-16T05:34:31;21.75;;;3.20;;
27706;SDS011;36332;51.384;0.040;2022-10-16T05:36:59;23.35;;;3.38;;
27706;SDS011;36332;51.384;0.040;2022-10-16T05:39:26;21.40;;;3.15;;
27706;SDS011;36332;51.384;0.040;2022-10-16T05:41:54;15.80;;;3.10;;
27706;SDS011;36332;51.384;0.040;2022-10-16T05:44:22;30.48;;;4.28;;
27706;SDS011;36332;51.384;0.040;2022-10-16T05:46:50;24.85;;;3.67;;
27706;SDS011;36332;51.384;0.040;2022-10-16T05:49:17;23.60;;;2.85;;
27706;SDS011;36332;51.384;0.040;2022-10-16T05:51:45;20.13;;;2.90;;
27706;SDS011;36332;51.384;0.040;2022-10-16T05:54:13;20.25;;;3.55;;
27706;SDS011;36332;51.384;0.040;2022-10-16T05:56:41;20.95;;;4.00;;
27706;SDS011;36332;51.384;0.040;2022-10-16T05:59:09;22.08;;;4.43;;
27706;SDS011;36332;51.384;0.040;2022-10-16T06:01:36;26.13;;;3.67;;
27706;SDS011;36332;51.384;0.040;2022-10-16T06:04:04;30.50;;;4.65;;
27706;SDS011;36332;51.384;0.040;2022-10-16T06:06:32;22.27;;;3.40;;
27706;SDS011;36332;51.384;0.040;2022-10-16T06:09:00;20.33;;;2.38;;
27706;SDS011;36332;51.384;0.040;2022-10-16T06:11:29;19.95;;;3.40;;
27706;SDS011;36332;51.384;0.040;2022-10-16T06:13:58;22.58;;;3.10;;
27706;SDS011;36332;51.384;0.040;2022-10-16T06:16:29;25.48;;;4.97;;
27706;SDS011;36332;51.384;0.040;2022-10-16T06:18:57;13.32;;;3.08;;
27706;SDS011;36332;51.384;0.040;2022-10-16T06:21:26;26.45;;;3.88;;
27706;SDS011;36332;51.384;0.040;2022-10-16T06:23:55;23.98;;;2.75;;
27706;SDS011;36332;51.384;0.040;2022-10-16T06:26:25;22.75;;;3.30;;
27706;SDS011;36332;51.384;0.040;2022-10-16T06:28:54;34.00;;;4.20;;
27706;SDS011;36332;51.384;0.040;2022-10-16T06:31:24;21.60;;;3.22;;
27706;SDS011;36332;51.384;0.040;2022-10-16T06:33:54;19.23;;;2.88;;
27706;SDS011;36332;51.384;0.040;2022-10-16T06:36:23;24.27;;;3.47;;
27706;SDS011;36332;51.384;0.040;2022-10-16T06:38:52;30.98;;;4.25;;
27706;SDS011;36332;51.384;0.040;2022-10-16T06:41:21;14.88;;;2.55;;
27706;SDS011;36332;51.384;0.040;2022-10-16T06:43:49;25.60;;;6.13;;
27706;SDS011;36332;51.384;0.040;2022-10-16T06:46:18;25.50;;;2.40;;
27706;SDS011;36332;51.384;0.040;2022-10-16T06:48:51;19.27;;;3.10;;
27706;SDS011;36332;51.384;0.040;2022-10-16T06:51:20;24.55;;;4.68;;
27706;SDS011;36332;51.384;0.040;2022-10-16T06:53:50;22.65;;;2.92;;
27706;SDS011;36332;51.384;0.040;2022-10-16T06:56:34;17.10;;;3.00;;
27706;SDS011;36332;51.384;0.040;2022-10-16T06:59:02;25.75;;;3.05;;
27706;SDS011;36332;51.384;0.040;2022-10-16T07:01:29;21.25;;;3.67;;
27706;SDS011;36332;51.384;0.040;2022-10-16T07:03:57;18.67;;;2.58;;
27706;SDS011;36332;51.384;0.040;2022-10-16T07:06:26;20.80;;;3.88;;
27706;SDS011;36332;51.384;0.040;2022-10-16T07:08:54;17.30;;;2.67;;
27706;SDS011;36332;51.384;0.040;2022-10-16T07:11:22;28.83;;;3.15;;
27706;SDS011;36332;51.384;0.040;2022-10-16T07:13:50;18.50;;;3.85;;
27706;SDS011;36332;51.384;0.040;2022-10-16T07:16:23;26.00;;;4.70;;
27706;SDS011;36332;51.384;0.040;2022-10-16T07:18:59;22.90;;;3.33;;
27706;SDS011;36332;51.384;0.040;2022-10-16T07:21:30;18.98;;;3.50;;
27706;SDS011;36332;51.384;0.040;2022-10-16T07:24:03;26.58;;;3.60;;
27706;SDS011;36332;51.384;0.040;2022-10-16T07:26:37;24.25;;;3.40;;
27706;SDS011;36332;51.384;0.040;2022-10-16T07:29:12;26.40;;;3.55;;
27706;SDS011;36332;51.384;0.040;2022-10-16T07:31:42;28.83;;;4.15;;
27706;SDS011;36332;51.384;0.040;2022-10-16T07:34:10;22.40;;;3.13;;
27706;SDS011;36332;51.384;0.040;2022-10-16T07:36:39;21.65;;;2.90;;
27706;SDS011;36332;51.384;0.040;2022-10-16T07:39:08;31.13;;;5.28;;
27706;SDS011;36332;51.384;0.040;2022-10-16T07:41:36;33.90;;;7.00;;
27706;SDS011;36332;51.384;0.040;2022-10-16T07:44:03;22.05;;;3.25;;
27706;SDS011;36332;51.384;0.040;2022-10-16T07:46:31;25.35;;;3.88;;
27706;SDS011;36332;51.384;0.040;2022-10-16T07:49:01;21.23;;;2.95;;
27706;SDS011;36332;51.384;0.040;2022-10-16T07:51:29;23.00;;;3.90;;
27706;SDS011;36332;51.384;0.040;2022-10-16T07:53:57;17.20;;;4.25;;
27706;SDS011;36332;51.384;0.040;2022-10-16T07:56:25;22.60;;;3.50;;
27706;SDS011;36332;51.384;0.040;2022-10-16T07:58:53;26.38;;;3.20;;
27706;SDS011;36332;51.384;0.040;2022-10-16T08:01:21;19.98;;;2.88;;
27706;SDS011;36332;51.384;0.040;2022-10-16T08:03:49;24.92;;;2.90;;
27706;SDS011;36332;51.384;0.040;2022-10-16T08:06:18;20.90;;;3.65;;
27706;SDS011;36332;51.384;0.040;2022-10-16T08:08:54;23.13;;;3.92;;
27706;SDS011;36332;51.384;0.040;2022-10-16T08:11:26;22.67;;;3.83;;
27706;SDS011;36332;51.384;0.040;2022-10-16T08:13:54;18.77;;;3.17;;
27706;SDS011;36332;51.384;0.040;2022-10-16T08:16:22;26.48;;;4.38;;
27706;SDS011;36332;51.384;0.040;2022-10-16T08:18:50;25.88;;;3.60;;
27706;SDS011;36332;51.384;0.040;2022-10-16T08:21:19;18.88;;;3.13;;
27706;SDS011;36332;51.384;0.040;2022-10-16T08:23:50;24.05;;;3.95;;
27706;SDS011;36332;51.384;0.040;2022-10-16T08:26:24;21.42;;;3.38;;
27706;SDS011;36332;51.384;0.040;2022-10-16T08:28:51;18.70;;;3.08;;
27706;SDS011;36332;51.384;0.040;2022-10-16T08:31:20;19.38;;;3.28;;
27706;SDS011;36332;51.384;0.040;2022-10-16T08:33:47;20.17;;;2.95;;
27706;SDS011;36332;51.384;0.040;2022-10-16T08:36:15;20.85;;;3.28;;
27706;SDS011;36332;51.384;0.040;2022-10-16T08:38:43;25.25;;;3.08;;
27706;SDS011;36332;51.384;0.040;2022-10-16T08:44:32;13.23;;;3.00;;
27706;SDS011;36332;51.384;0.040;2022-10-16T08:49:59;16.30;;;3.10;;
27706;SDS011;36332;51.384;0.040;2022-10-16T08:54:59;19.60;;;3.03;;
27706;SDS011;36332;51.384;0.040;2022-10-16T08:57:26;20.92;;;3.50;;
27706;SDS011;36332;51.384;0.040;2022-10-16T08:59:55;19.42;;;2.92;;
27706;SDS011;36332;51.384;0.040;2022-10-16T09:02:37;24.80;;;3.08;;
27706;SDS011;36332;51.384;0.040;2022-10-16T09:11:22;12.00;;;2.67;;
27706;SDS011;36332;51.384;0.040;2022-10-16T09:14:32;14.57;;;2.67;;
27706;SDS011;36332;51.384;0.040;2022-10-16T09:20:03;19.20;;;3.30;;
27706;SDS011;36332;51.384;0.040;2022-10-16T09:23:38;19.50;;;3.45;;
27706;SDS011;36332;51.384;0.040;2022-10-16T09:25:55;16.50;;;2.83;;
27706;SDS011;36332;51.384;0.040;2022-10-16T09:28:25;15.57;;;3.58;;
27706;SDS011;36332;51.384;0.040;2022-10-16T09:30:53;18.90;;;3.13;;
27706;SDS011;36332;51.384;0.040;2022-10-16T09:33:22;16.42;;;3.10;;
27706;SDS011;36332;51.384;0.040;2022-10-16T09:35:55;15.40;;;2.55;;
27706;SDS011;36332;51.384;0.040;2022-10-16T09:38:29;23.27;;;3.53;;
27706;SDS011;36332;51.384;0.040;2022-10-16T09:41:13;7.90;;;1.48;;
27706;SDS011;36332;51.384;0.040;2022-10-16T09:43:52;18.50;;;3.15;;
27706;SDS011;36332;51.384;0.040;2022-10-16T09:46:28;14.90;;;3.53;;
27706;SDS011;36332;51.384;0.040;2022-10-16T09:49:01;16.15;;;2.88;;
27706;SDS011;36332;51.384;0.040;2022-10-16T09:51:32;14.95;;;2.90;;
27706;SDS011;36332;51.384;0.040;2022-10-16T09:56:37;14.77;;;3.05;;
27706;SDS011;36332;51.384;0.040;2022-10-16T09:59:10;14.35;;;2.50;;
27706;SDS011;36332;51.384;0.040;2022-10-16T10:01:53;18.60;;;4.32;;
27706;SDS011;36332;51.384;0.040;2022-10-16T10:04:22;20.15;;;3.25;;
27706;SDS011;36332;51.384;0.040;2022-10-16T10:06:53;16.27;;;3.75;;
27706;SDS011;36332;51.384;0.040;2022-10-16T10:09:25;13.25;;;3.03;;
27706;SDS011;36332;51.384;0.040;2022-10-16T10:11:57;14.00;;;2.40;;
27706;SDS011;36332;51.384;0.040;2022-10-16T10:14:35;17.40;;;2.58;;
27706;SDS011;36332;51.384;0.040;2022-10-16T10:17:23;18.52;;;2.72;;
27706;SDS011;36332;51.384;0.040;2022-10-16T10:19:58;15.40;;;2.65;;
27706;SDS011;36332;51.384;0.040;2022-10-16T10:22:43;17.15;;;2.78;;
27706;SDS011;36332;51.384;0.040;2022-10-16T10:36:54;10.23;;;2.63;;
27706;SDS011;36332;51.384;0.040;2022-10-16T10:39:36;19.35;;;2.67;;
27706;SDS011;36332;51.384;0.040;2022-10-16T10:44:54;15.15;;;2.65;;
27706;SDS011;36332;51.384;0.040;2022-10-16T11:07:42;19.15;;;3.50;;
27706;SDS011;36332;51.384;0.040;2022-10-16T11:10:18;18.25;;;3.90;;
27706;SDS011;36332;51.384;0.040;2022-10-16T11:12:51;16.00;;;2.20;;
27706;SDS011;36332;51.384;0.040;2022-10-16T11:15:25;12.43;;;3.05;;
27706;SDS011;36332;51.384;0.040;2022-10-16T11:18:08;14.45;;;3.40;;
27706;SDS011;36332;51.384;0.040;2022-10-16T11:21:06;11.93;;;2.85;;
27706;SDS011;36332;51.384;0.040;2022-10-16T11:23:51;19.25;;;3.17;;
27706;SDS011;36332;51.384;0.040;2022-10-16T11:26:28;14.05;;;2.70;;
27706;SDS011;36332;51.384;0.040;2022-10-16T11:29:00;16.67;;;2.75;;
27706;SDS011;36332;51.384;0.040;2022-10-16T11:31:38;21.00;;;4.47;;
27706;SDS011;36332;51.384;0.040;2022-10-16T11:34:39;15.60;;;2.60;;
27706;SDS011;36332;51.384;0.040;2022-10-16T11:37:20;15.05;;;2.97;;
27706;SDS011;36332;51.384;0.040;2022-10-16T11:40:10;11.25;;;2.58;;
27706;SDS011;36332;51.384;0.040;2022-10-16T11:42:49;16.55;;;3.13;;
27706;SDS011;36332;51.384;0.040;2022-10-16T11:45:51;13.45;;;3.00;;
27706;SDS011;36332;51.384;0.040;2022-10-16T11:48:24;9.10;;;2.33;;
27706;SDS011;36332;51.384;0.040;2022-10-16T11:50:53;23.38;;;3.13;;
27706;SDS011;36332;51.384;0.040;2022-10-16T11:56:24;20.45;;;4.80;;
27706;SDS011;36332;51.384;0.040;2022-10-16T11:58:54;22.45;;;5.90;;
27706;SDS011;36332;51.384;0.040;2022-10-16T12:01:37;14.57;;;3.33;;
27706;SDS011;36332;51.384;0.040;2022-10-16T12:04:31;17.70;;;5.68;;
27706;SDS011;36332;51.384;0.040;2022-10-16T12:07:14;19.95;;;3.22;;
27706;SDS011;36332;51.384;0.040;2022-10-16T12:09:46;18.30;;;4.00;;
27706;SDS011;36332;51.384;0.040;2022-10-16T12:12:24;16.10;;;3.55;;
27706;SDS011;36332;51.384;0.040;2022-10-16T12:18:00;17.10;;;4.40;;
27706;SDS011;36332;51.384;0.040;2022-10-16T12:20:31;24.25;;;5.85;;
27706;SDS011;36332;51.384;0.040;2022-10-16T12:23:02;28.75;;;6.57;;
27706;SDS011;36332;51.384;0.040;2022-10-16T12:25:35;20.25;;;4.50;;
27706;SDS011;36332;51.384;0.040;2022-10-16T12:28:17;14.57;;;3.63;;
27706;SDS011;36332;51.384;0.040;2022-10-16T12:30:55;20.15;;;5.10;;
27706;SDS011;36332;51.384;0.040;2022-10-16T12:33:27;20.90;;;4.55;;
27706;SDS011;36332;51.384;0.040;2022-10-16T12:35:57;23.75;;;4.20;;
27706;SDS011;36332;51.384;0.040;2022-10-16T12:38:28;32.17;;;6.35;;
27706;SDS011;36332;51.384;0.040;2022-10-16T12:41:23;22.67;;;3.92;;
27706;SDS011;36332;51.384;0.040;2022-10-16T12:43:55;32.80;;;5.28;;
27706;SDS011;36332;51.384;0.040;2022-10-16T12:49:15;24.52;;;4.90;;
27706;SDS011;36332;51.384;0.040;2022-10-16T12:51:48;24.40;;;4.93;;
27706;SDS011;36332;51.384;0.040;2022-10-16T12:54:17;28.55;;;4.45;;
27706;SDS011;36332;51.384;0.040;2022-10-16T13:06:39;26.48;;;5.63;;
27706;SDS011;36332;51.384;0.040;2022-10-16T13:17:15;28.02;;;6.00;;
27706;SDS011;36332;51.384;0.040;2022-10-16T13:30:14;21.77;;;5.45;;
27706;SDS011;36332;51.384;0.040;2022-10-16T13:32:45;34.78;;;5.82;;
27706;SDS011;36332;51.384;0.040;2022-10-16T13:35:26;22.50;;;4.18;;
27706;SDS011;36332;51.384;0.040;2022-10-16T13:40:52;25.58;;;4.22;;
27706;SDS011;36332;51.384;0.040;2022-10-16T13:43:23;21.52;;;3.75;;
27706;SDS011;36332;51.384;0.040;2022-10-16T13:46:13;32.38;;;5.78;;
27706;SDS011;36332;51.384;0.040;2022-10-16T13:48:58;23.08;;;4.38;;
27706;SDS011;36332;51.384;0.040;2022-10-16T13:51:31;29.63;;;5.57;;
27706;SDS011;36332;51.384;0.040;2022-10-16T13:53:59;38.72;;;5.72;;
27706;SDS011;36332;51.384;0.040;2022-10-16T13:56:31;18.92;;;4.85;;
27706;SDS011;36332;51.384;0.040;2022-10-16T14:01:48;34.47;;;4.50;;
27706;SDS011;36332;51.384;0.040;2022-10-16T14:04:19;18.95;;;4.20;;
27706;SDS011;36332;51.384;0.040;2022-10-16T14:06:48;36.70;;;5.85;;
27706;SDS011;36332;51.384;0.040;2022-10-16T14:09:27;41.30;;;4.53;;
27706;SDS011;36332;51.384;0.040;2022-10-16T14:12:01;27.45;;;4.78;;
27706;SDS011;36332;51.384;0.040;2022-10-16T14:14:33;33.17;;;5.57;;
27706;SDS011;36332;51.384;0.040;2022-10-16T14:17:43;19.90;;;4.88;;
27706;SDS011;36332;51.384;0.040;2022-10-16T14:20:03;27.90;;;6.50;;
27706;SDS011;36332;51.384;0.040;2022-10-16T14:25:02;21.73;;;4.47;;
27706;SDS011;36332;51.384;0.040;2022-10-16T14:28:04;21.20;;;4.97;;
27706;SDS011;36332;51.384;0.040;2022-10-16T14:30:34;24.63;;;4.28;;
27706;SDS011;36332;51.384;0.040;2022-10-16T14:33:05;17.08;;;3.92;;
27706;SDS011;36332;51.384;0.040;2022-10-16T14:35:46;20.52;;;4.75;;
27706;SDS011;36332;51.384;0.040;2022-10-16T14:38:38;27.58;;;6.68;;
27706;SDS011;36332;51.384;0.040;2022-10-16T14:41:06;37.33;;;7.25;;
27706;SDS011;36332;51.384;0.040;2022-10-16T14:46:03;20.50;;;4.55;;
27706;SDS011;36332;51.384;0.040;2022-10-16T14:54:09;26.10;;;4.75;;
27706;SDS011;36332;51.384;0.040;2022-10-16T14:59:15;27.40;;;5.03;;
27706;SDS011;36332;51.384;0.040;2022-10-16T15:01:46;24.55;;;4.18;;
27706;SDS011;36332;51.384;0.040;2022-10-16T15:04:14;26.00;;;3.70;;
27706;SDS011;36332;51.384;0.040;2022-10-16T15:06:43;18.52;;;3.38;;
27706;SDS011;36332;51.384;0.040;2022-10-16T15:09:10;21.58;;;4.90;;
27706;SDS011;36332;51.384;0.040;2022-10-16T15:11:38;22.63;;;4.30;;
27706;SDS011;36332;51.384;0.040;2022-10-16T15:14:08;15.45;;;4.07;;
27706;SDS011;36332;51.384;0.040;2022-10-16T15:16:38;25.23;;;5.20;;
27706;SDS011;36332;51.384;0.040;2022-10-16T15:19:06;32.97;;;8.38;;
27706;SDS011;36332;51.384;0.040;2022-10-16T15:21:34;30.80;;;5.22;;
27706;SDS011;36332;51.384;0.040;2022-10-16T15:24:02;36.33;;;10.43;;
27706;SDS011;36332;51.384;0.040;2022-10-16T15:26:33;24.15;;;5.20;;
27706;SDS011;36332;51.384;0.040;2022-10-16T15:29:01;26.13;;;6.18;;
27706;SDS011;36332;51.384;0.040;2022-10-16T15:31:28;27.13;;;4.15;;
27706;SDS011;36332;51.384;0.040;2022-10-16T15:33:56;24.35;;;5.43;;
27706;SDS011;36332;51.384;0.040;2022-10-16T15:36:32;18.25;;;4.22;;
27706;SDS011;36332;51.384;0.040;2022-10-16T15:39:03;21.00;;;4.30;;
27706;SDS011;36332;51.384;0.040;2022-10-16T15:41:31;17.08;;;4.50;;
27706;SDS011;36332;51.384;0.040;2022-10-16T15:43:59;18.83;;;4.65;;
27706;SDS011;36332;51.384;0.040;2022-10-16T15:46:27;23.83;;;5.03;;
27706;SDS011;36332;51.384;0.040;2022-10-16T15:48:58;18.45;;;5.50;;
27706;SDS011;36332;51.384;0.040;2022-10-16T15:51:26;21.05;;;5.20;;
27706;SDS011;36332;51.384;0.040;2022-10-16T15:53:59;23.50;;;6.78;;
27706;SDS011;36332;51.384;0.040;2022-10-16T15:56:28;22.23;;;4.53;;
27706;SDS011;36332;51.384;0.040;2022-10-16T15:58:59;20.48;;;4.78;;
27706;SDS011;36332;51.384;0.040;2022-10-16T16:01:31;23.63;;;5.40;;
27706;SDS011;36332;51.384;0.040;2022-10-16T16:04:00;21.17;;;4.55;;
27706;SDS011;36332;51.384;0.040;2022-10-16T16:06:41;15.00;;;3.35;;
27706;SDS011;36332;51.384;0.040;2022-10-16T16:09:12;25.15;;;5.50;;
27706;SDS011;36332;51.384;0.040;2022-10-16T16:11:40;19.88;;;4.70;;
27706;SDS011;36332;51.384;0.040;2022-10-16T16:14:12;20.35;;;4.40;;
27706;SDS011;36332;51.384;0.040;2022-10-16T16:16:41;23.75;;;4.55;;
27706;SDS011;36332;51.384;0.040;2022-10-16T16:19:09;31.23;;;6.35;;
27706;SDS011;36332;51.384;0.040;2022-10-16T16:21:38;21.75;;;4.13;;
27706;SDS011;36332;51.384;0.040;2022-10-16T16:24:06;39.20;;;12.70;;
27706;SDS011;36332;51.384;0.040;2022-10-16T16:26:34;33.78;;;10.45;;
27706;SDS011;36332;51.384;0.040;2022-10-16T16:29:04;41.50;;;16.58;;
27706;SDS011;36332;51.384;0.040;2022-10-16T16:31:32;48.67;;;21.70;;
27706;SDS011;36332;51.384;0.040;2022-10-16T16:34:01;43.90;;;17.83;;
27706;SDS011;36332;51.384;0.040;2022-10-16T16:36:29;76.32;;;31.73;;
27706;SDS011;36332;51.384;0.040;2022-10-16T16:38:57;23.63;;;7.15;;
27706;SDS011;36332;51.384;0.040;2022-10-16T16:41:27;33.95;;;8.20;;
27706;SDS011;36332;51.384;0.040;2022-10-16T16:44:06;19.92;;;5.13;;
27706;SDS011;36332;51.384;0.040;2022-10-16T16:46:36;19.80;;;4.75;;
27706;SDS011;36332;51.384;0.040;2022-10-16T16:49:03;22.10;;;6.22;;
27706;SDS011;36332;51.384;0.040;2022-10-16T16:51:32;27.75;;;6.65;;
27706;SDS011;36332;51.384;0.040;2022-10-16T16:54:06;22.98;;;5.55;;
27706;SDS011;36332;51.384;0.040;2022-10-16T16:56:37;15.80;;;5.05;;
27706;SDS011;36332;51.384;0.040;2022-10-16T16:59:14;15.50;;;5.40;;
27706;SDS011;36332;51.384;0.040;2022-10-16T17:01:45;21.90;;;6.13;;
27706;SDS011;36332;51.384;0.040;2022-10-16T17:04:13;27.52;;;5.03;;